Terminal Aerodrome Forecast
Issued by NWS Cleveland, OH

Home | Current Version | Previous Version | Text Only | Print | Product List | Glossary On
Versions: 1 2 3 4 5 6 7 8 9 10 11 12 13 14 15 16 17 18 19 20 21 22 23 24 25 26 27 28
000
FTUS41 KCLE 271700
TAFCLE
TAF
KCLE 271738Z 2718/2824 29012KT P6SM BKN030 OVC040
     FM272300 29010KT 5SM -SHSN OVC025
      TEMPO 2723/2803 1 1/2SM -SHSN OVC015
     FM280500 29008KT P6SM -SHSN OVC025
     FM281200 26006KT P6SM SCT035
     FM281400 22006KT P6SM BKN200
     FM281800 22008KT P6SM OVC100=

USA.gov is the U.S. government's official web portal to all federal, state and local government web resources and services.